sensor_id;sensor_type;location;lat;lon;timestamp;P1;durP1;ratioP1;P2;durP2;ratioP2
22298;SDS011;11317;51.072;17.036;2023-04-21T13:04:18;6.13;;;4.47;;
22298;SDS011;11317;51.072;17.036;2023-04-21T13:06:44;5.65;;;4.30;;
22298;SDS011;11317;51.072;17.036;2023-04-21T13:09:10;7.75;;;4.75;;
22298;SDS011;11317;51.072;17.036;2023-04-21T13:11:36;6.22;;;4.63;;
22298;SDS011;11317;51.072;17.036;2023-04-21T13:14:03;5.93;;;4.72;;
22298;SDS011;11317;51.072;17.036;2023-04-21T13:16:29;9.43;;;4.88;;
22298;SDS011;11317;51.072;17.036;2023-04-21T13:18:55;6.97;;;4.32;;
22298;SDS011;11317;51.072;17.036;2023-04-21T13:21:21;9.48;;;4.57;;
22298;SDS011;11317;51.072;17.036;2023-04-21T13:23:47;6.75;;;4.32;;
22298;SDS011;11317;51.072;17.036;2023-04-21T13:26:13;7.35;;;5.00;;
22298;SDS011;11317;51.072;17.036;2023-04-21T13:28:40;6.45;;;4.75;;
22298;SDS011;11317;51.072;17.036;2023-04-21T13:31:06;6.05;;;4.47;;
22298;SDS011;11317;51.072;17.036;2023-04-21T13:33:32;7.50;;;4.38;;
22298;SDS011;11317;51.072;17.036;2023-04-21T13:36:00;5.22;;;4.20;;
22298;SDS011;11317;51.072;17.036;2023-04-21T13:38:26;6.70;;;4.78;;
22298;SDS011;11317;51.072;17.036;2023-04-21T13:40:52;9.75;;;5.05;;
22298;SDS011;11317;51.072;17.036;2023-04-21T13:43:18;6.68;;;3.65;;
22298;SDS011;11317;51.072;17.036;2023-04-21T13:45:45;5.40;;;4.25;;
22298;SDS011;11317;51.072;17.036;2023-04-21T13:48:13;6.25;;;4.47;;
22298;SDS011;11317;51.072;17.036;2023-04-21T13:50:39;7.68;;;4.68;;
22298;SDS011;11317;51.072;17.036;2023-04-21T13:53:06;7.65;;;4.28;;
22298;SDS011;11317;51.072;17.036;2023-04-21T13:55:32;5.95;;;4.05;;
22298;SDS011;11317;51.072;17.036;2023-04-21T13:57:58;4.75;;;3.92;;
22298;SDS011;11317;51.072;17.036;2023-04-21T14:00:27;4.65;;;3.88;;
22298;SDS011;11317;51.072;17.036;2023-04-21T14:02:53;4.20;;;3.67;;
22298;SDS011;11317;51.072;17.036;2023-04-21T14:05:20;5.60;;;3.90;;
22298;SDS011;11317;51.072;17.036;2023-04-21T14:07:46;3.80;;;3.42;;
22298;SDS011;11317;51.072;17.036;2023-04-21T14:10:12;6.10;;;3.85;;
22298;SDS011;11317;51.072;17.036;2023-04-21T14:12:38;5.68;;;3.58;;
22298;SDS011;11317;51.072;17.036;2023-04-21T14:15:05;4.57;;;3.67;;
22298;SDS011;11317;51.072;17.036;2023-04-21T14:17:31;8.18;;;3.92;;
22298;SDS011;11317;51.072;17.036;2023-04-21T14:19:57;6.07;;;3.90;;
22298;SDS011;11317;51.072;17.036;2023-04-21T14:22:23;5.45;;;3.80;;
22298;SDS011;11317;51.072;17.036;2023-04-21T14:24:49;6.53;;;3.65;;
22298;SDS011;11317;51.072;17.036;2023-04-21T14:27:15;4.57;;;3.42;;
22298;SDS011;11317;51.072;17.036;2023-04-21T14:29:41;3.55;;;3.25;;
22298;SDS011;11317;51.072;17.036;2023-04-21T14:32:07;6.15;;;3.60;;
22298;SDS011;11317;51.072;17.036;2023-04-21T14:34:33;6.28;;;3.60;;
22298;SDS011;11317;51.072;17.036;2023-04-21T14:36:59;4.00;;;3.10;;
22298;SDS011;11317;51.072;17.036;2023-04-21T14:39:25;5.15;;;3.50;;
22298;SDS011;11317;51.072;17.036;2023-04-21T14:41:51;4.85;;;3.30;;
22298;SDS011;11317;51.072;17.036;2023-04-21T14:44:18;5.55;;;3.47;;
22298;SDS011;11317;51.072;17.036;2023-04-21T14:46:43;5.80;;;3.60;;
22298;SDS011;11317;51.072;17.036;2023-04-21T14:49:10;5.72;;;3.95;;
22298;SDS011;11317;51.072;17.036;2023-04-21T14:51:36;4.47;;;3.78;;
22298;SDS011;11317;51.072;17.036;2023-04-21T14:54:04;6.82;;;3.65;;
22298;SDS011;11317;51.072;17.036;2023-04-21T14:56:30;4.55;;;3.60;;
22298;SDS011;11317;51.072;17.036;2023-04-21T14:58:56;4.40;;;3.50;;
22298;SDS011;11317;51.072;17.036;2023-04-21T15:01:22;7.30;;;4.40;;
22298;SDS011;11317;51.072;17.036;2023-04-21T15:03:48;5.63;;;3.75;;
22298;SDS011;11317;51.072;17.036;2023-04-21T15:06:14;5.25;;;3.78;;
22298;SDS011;11317;51.072;17.036;2023-04-21T15:08:41;4.85;;;3.58;;
22298;SDS011;11317;51.072;17.036;2023-04-21T15:11:07;5.75;;;3.78;;
22298;SDS011;11317;51.072;17.036;2023-04-21T15:13:33;5.38;;;3.80;;
22298;SDS011;11317;51.072;17.036;2023-04-21T15:15:59;5.15;;;3.90;;
22298;SDS011;11317;51.072;17.036;2023-04-21T15:18:25;6.93;;;3.83;;
22298;SDS011;11317;51.072;17.036;2023-04-21T15:20:51;4.63;;;3.90;;
22298;SDS011;11317;51.072;17.036;2023-04-21T15:23:17;5.70;;;4.13;;
22298;SDS011;11317;51.072;17.036;2023-04-21T15:25:43;5.50;;;4.13;;
22298;SDS011;11317;51.072;17.036;2023-04-21T15:28:10;5.90;;;3.65;;
22298;SDS011;11317;51.072;17.036;2023-04-21T15:30:37;4.97;;;4.03;;
22298;SDS011;11317;51.072;17.036;2023-04-21T15:33:03;6.78;;;4.30;;
22298;SDS011;11317;51.072;17.036;2023-04-21T15:35:29;4.28;;;3.58;;
22298;SDS011;11317;51.072;17.036;2023-04-21T15:37:55;5.20;;;3.78;;
22298;SDS011;11317;51.072;17.036;2023-04-21T15:40:21;5.95;;;4.15;;
22298;SDS011;11317;51.072;17.036;2023-04-21T15:42:47;6.38;;;4.10;;
22298;SDS011;11317;51.072;17.036;2023-04-21T15:45:13;7.32;;;3.90;;
22298;SDS011;11317;51.072;17.036;2023-04-21T15:47:41;5.25;;;3.78;;
22298;SDS011;11317;51.072;17.036;2023-04-21T15:50:07;10.68;;;5.43;;
22298;SDS011;11317;51.072;17.036;2023-04-21T15:52:37;4.88;;;3.92;;
22298;SDS011;11317;51.072;17.036;2023-04-21T15:55:06;5.97;;;4.00;;
22298;SDS011;11317;51.072;17.036;2023-04-21T15:57:32;7.07;;;4.20;;
22298;SDS011;11317;51.072;17.036;2023-04-21T15:59:59;6.97;;;3.67;;
22298;SDS011;11317;51.072;17.036;2023-04-21T16:02:25;5.95;;;3.30;;
22298;SDS011;11317;51.072;17.036;2023-04-21T16:04:51;5.97;;;4.13;;
22298;SDS011;11317;51.072;17.036;2023-04-21T16:07:17;4.82;;;3.45;;
22298;SDS011;11317;51.072;17.036;2023-04-21T16:09:43;4.88;;;3.75;;
22298;SDS011;11317;51.072;17.036;2023-04-21T16:12:09;5.13;;;4.03;;
22298;SDS011;11317;51.072;17.036;2023-04-21T16:14:35;8.70;;;4.30;;
22298;SDS011;11317;51.072;17.036;2023-04-21T16:17:03;7.43;;;4.57;;
22298;SDS011;11317;51.072;17.036;2023-04-21T16:19:29;9.07;;;5.03;;
22298;SDS011;11317;51.072;17.036;2023-04-21T16:21:56;5.55;;;4.50;;
22298;SDS011;11317;51.072;17.036;2023-04-21T16:24:22;9.02;;;4.25;;
22298;SDS011;11317;51.072;17.036;2023-04-21T16:26:48;5.70;;;4.20;;
22298;SDS011;11317;51.072;17.036;2023-04-21T16:29:14;10.88;;;4.72;;
22298;SDS011;11317;51.072;17.036;2023-04-21T16:31:41;5.97;;;3.70;;
22298;SDS011;11317;51.072;17.036;2023-04-21T16:34:07;9.90;;;4.25;;
22298;SDS011;11317;51.072;17.036;2023-04-21T16:36:33;7.20;;;4.60;;
22298;SDS011;11317;51.072;17.036;2023-04-21T16:38:59;6.22;;;4.57;;
22298;SDS011;11317;51.072;17.036;2023-04-21T16:41:25;6.25;;;4.00;;
22298;SDS011;11317;51.072;17.036;2023-04-21T16:43:51;6.13;;;4.53;;
22298;SDS011;11317;51.072;17.036;2023-04-21T16:46:17;5.15;;;4.18;;
22298;SDS011;11317;51.072;17.036;2023-04-21T16:48:43;6.22;;;4.15;;
22298;SDS011;11317;51.072;17.036;2023-04-21T16:51:09;8.07;;;4.65;;
22298;SDS011;11317;51.072;17.036;2023-04-21T16:53:35;7.90;;;4.47;;
22298;SDS011;11317;51.072;17.036;2023-04-21T16:56:01;8.82;;;4.03;;
22298;SDS011;11317;51.072;17.036;2023-04-21T16:58:27;10.50;;;4.70;;
22298;SDS011;11317;51.072;17.036;2023-04-21T17:00:53;7.95;;;5.00;;
22298;SDS011;11317;51.072;17.036;2023-04-21T17:03:19;7.43;;;4.28;;
22298;SDS011;11317;51.072;17.036;2023-04-21T17:05:46;7.70;;;4.22;;
22298;SDS011;11317;51.072;17.036;2023-04-21T17:08:12;9.15;;;4.80;;
22298;SDS011;11317;51.072;17.036;2023-04-21T17:10:38;8.10;;;4.57;;
22298;SDS011;11317;51.072;17.036;2023-04-21T17:13:04;9.18;;;4.85;;
22298;SDS011;11317;51.072;17.036;2023-04-21T17:15:31;7.20;;;3.85;;
22298;SDS011;11317;51.072;17.036;2023-04-21T17:17:58;6.82;;;4.85;;
22298;SDS011;11317;51.072;17.036;2023-04-21T17:20:24;7.82;;;4.47;;
22298;SDS011;11317;51.072;17.036;2023-04-21T17:22:50;6.10;;;4.57;;
22298;SDS011;11317;51.072;17.036;2023-04-21T17:25:16;6.20;;;4.63;;
22298;SDS011;11317;51.072;17.036;2023-04-21T17:27:42;6.10;;;4.38;;
22298;SDS011;11317;51.072;17.036;2023-04-21T17:30:08;6.10;;;4.55;;
22298;SDS011;11317;51.072;17.036;2023-04-21T17:32:35;8.45;;;4.70;;
22298;SDS011;11317;51.072;17.036;2023-04-21T17:35:01;7.55;;;4.22;;
22298;SDS011;11317;51.072;17.036;2023-04-21T17:37:29;5.53;;;4.35;;
22298;SDS011;11317;51.072;17.036;2023-04-21T17:39:56;7.35;;;4.88;;
22298;SDS011;11317;51.072;17.036;2023-04-21T17:42:21;9.18;;;5.30;;
22298;SDS011;11317;51.072;17.036;2023-04-21T17:44:47;7.97;;;4.82;;
22298;SDS011;11317;51.072;17.036;2023-04-21T17:47:13;7.03;;;4.85;;
22298;SDS011;11317;51.072;17.036;2023-04-21T17:49:40;12.73;;;5.30;;
22298;SDS011;11317;51.072;17.036;2023-04-21T17:52:06;7.25;;;4.13;;
22298;SDS011;11317;51.072;17.036;2023-04-21T17:54:31;9.68;;;4.70;;
22298;SDS011;11317;51.072;17.036;2023-04-21T17:56:57;7.93;;;4.70;;
22298;SDS011;11317;51.072;17.036;2023-04-21T17:59:23;7.78;;;5.30;;
22298;SDS011;11317;51.072;17.036;2023-04-21T18:01:50;10.20;;;4.85;;
22298;SDS011;11317;51.072;17.036;2023-04-21T18:04:16;8.45;;;5.57;;
22298;SDS011;11317;51.072;17.036;2023-04-21T18:06:42;9.23;;;5.20;;
22298;SDS011;11317;51.072;17.036;2023-04-21T18:09:08;8.93;;;6.03;;
22298;SDS011;11317;51.072;17.036;2023-04-21T18:11:34;7.70;;;5.05;;
22298;SDS011;11317;51.072;17.036;2023-04-21T18:14:00;8.93;;;5.43;;
22298;SDS011;11317;51.072;17.036;2023-04-21T18:16:26;9.32;;;5.32;;
22298;SDS011;11317;51.072;17.036;2023-04-21T18:18:52;7.47;;;5.10;;
22298;SDS011;11317;51.072;17.036;2023-04-21T18:21:18;6.43;;;4.40;;
22298;SDS011;11317;51.072;17.036;2023-04-21T18:23:44;7.13;;;4.28;;
22298;SDS011;11317;51.072;17.036;2023-04-21T18:26:10;5.10;;;4.10;;
22298;SDS011;11317;51.072;17.036;2023-04-21T18:28:36;3.65;;;3.35;;
22298;SDS011;11317;51.072;17.036;2023-04-21T18:31:02;8.25;;;4.15;;
22298;SDS011;11317;51.072;17.036;2023-04-21T18:33:28;7.90;;;4.72;;
22298;SDS011;11317;51.072;17.036;2023-04-21T18:35:54;6.53;;;4.82;;
22298;SDS011;11317;51.072;17.036;2023-04-21T18:38:20;7.22;;;4.63;;
22298;SDS011;11317;51.072;17.036;2023-04-21T18:40:46;8.43;;;4.80;;
22298;SDS011;11317;51.072;17.036;2023-04-21T18:43:12;11.00;;;5.03;;
22298;SDS011;11317;51.072;17.036;2023-04-21T18:45:39;13.30;;;5.60;;
22298;SDS011;11317;51.072;17.036;2023-04-21T18:48:04;11.60;;;6.10;;
22298;SDS011;11317;51.072;17.036;2023-04-21T18:50:30;12.13;;;6.13;;
22298;SDS011;11317;51.072;17.036;2023-04-21T18:52:57;14.38;;;8.10;;
22298;SDS011;11317;51.072;17.036;2023-04-21T18:55:24;15.23;;;8.73;;
22298;SDS011;11317;51.072;17.036;2023-04-21T18:57:50;14.20;;;7.80;;
22298;SDS011;11317;51.072;17.036;2023-04-21T19:00:16;12.63;;;7.20;;
22298;SDS011;11317;51.072;17.036;2023-04-21T19:02:42;12.52;;;6.93;;
22298;SDS011;11317;51.072;17.036;2023-04-21T19:05:12;11.70;;;5.88;;
22298;SDS011;11317;51.072;17.036;2023-04-21T19:07:39;11.32;;;6.00;;
22298;SDS011;11317;51.072;17.036;2023-04-21T19:10:06;10.15;;;6.30;;
22298;SDS011;11317;51.072;17.036;2023-04-21T19:12:32;7.93;;;5.43;;
22298;SDS011;11317;51.072;17.036;2023-04-21T19:14:59;7.75;;;5.20;;
22298;SDS011;11317;51.072;17.036;2023-04-21T19:17:25;10.25;;;4.50;;
22298;SDS011;11317;51.072;17.036;2023-04-21T19:19:51;9.48;;;5.65;;
22298;SDS011;11317;51.072;17.036;2023-04-21T19:22:17;9.40;;;5.05;;
22298;SDS011;11317;51.072;17.036;2023-04-21T19:24:44;8.82;;;5.88;;
22298;SDS011;11317;51.072;17.036;2023-04-21T19:27:11;9.60;;;5.53;;
22298;SDS011;11317;51.072;17.036;2023-04-21T19:29:37;8.57;;;5.35;;
22298;SDS011;11317;51.072;17.036;2023-04-21T19:32:04;7.63;;;5.13;;
22298;SDS011;11317;51.072;17.036;2023-04-21T19:34:31;8.23;;;5.20;;
22298;SDS011;11317;51.072;17.036;2023-04-21T19:36:57;8.18;;;4.57;;
22298;SDS011;11317;51.072;17.036;2023-04-21T19:39:23;11.63;;;5.22;;
22298;SDS011;11317;51.072;17.036;2023-04-21T19:41:49;11.32;;;5.25;;
22298;SDS011;11317;51.072;17.036;2023-04-21T19:44:15;9.27;;;5.22;;
22298;SDS011;11317;51.072;17.036;2023-04-21T19:46:42;10.35;;;5.43;;
22298;SDS011;11317;51.072;17.036;2023-04-21T19:49:08;9.88;;;5.53;;
22298;SDS011;11317;51.072;17.036;2023-04-21T19:51:37;10.23;;;5.60;;
22298;SDS011;11317;51.072;17.036;2023-04-21T19:54:05;12.40;;;5.65;;
22298;SDS011;11317;51.072;17.036;2023-04-21T19:56:31;8.77;;;5.57;;
22298;SDS011;11317;51.072;17.036;2023-04-21T19:59:00;10.13;;;5.93;;
22298;SDS011;11317;51.072;17.036;2023-04-21T20:01:28;10.73;;;6.35;;
22298;SDS011;11317;51.072;17.036;2023-04-21T20:03:55;11.82;;;6.80;;
22298;SDS011;11317;51.072;17.036;2023-04-21T20:06:21;9.10;;;6.03;;
22298;SDS011;11317;51.072;17.036;2023-04-21T20:08:47;10.82;;;6.50;;
22298;SDS011;11317;51.072;17.036;2023-04-21T20:11:13;13.75;;;7.03;;
22298;SDS011;11317;51.072;17.036;2023-04-21T20:13:39;10.23;;;7.00;;
22298;SDS011;11317;51.072;17.036;2023-04-21T20:16:05;11.88;;;7.15;;
22298;SDS011;11317;51.072;17.036;2023-04-21T20:18:31;16.55;;;7.00;;
22298;SDS011;11317;51.072;17.036;2023-04-21T20:20:57;10.00;;;6.15;;
22298;SDS011;11317;51.072;17.036;2023-04-21T20:23:23;11.85;;;6.78;;
22298;SDS011;11317;51.072;17.036;2023-04-21T20:25:49;13.57;;;7.00;;
22298;SDS011;11317;51.072;17.036;2023-04-21T20:28:15;12.80;;;7.18;;
22298;SDS011;11317;51.072;17.036;2023-04-21T20:30:41;11.90;;;6.90;;
22298;SDS011;11317;51.072;17.036;2023-04-21T20:33:07;14.38;;;7.40;;
22298;SDS011;11317;51.072;17.036;2023-04-21T20:35:33;15.43;;;7.43;;
22298;SDS011;11317;51.072;17.036;2023-04-21T20:38:03;14.02;;;6.90;;
22298;SDS011;11317;51.072;17.036;2023-04-21T20:40:32;13.55;;;7.57;;
22298;SDS011;11317;51.072;17.036;2023-04-21T20:43:01;14.68;;;6.95;;
22298;SDS011;11317;51.072;17.036;2023-04-21T20:45:31;13.57;;;7.15;;
22298;SDS011;11317;51.072;17.036;2023-04-21T20:47:58;16.65;;;7.00;;
22298;SDS011;11317;51.072;17.036;2023-04-21T20:50:24;10.35;;;6.20;;
22298;SDS011;11317;51.072;17.036;2023-04-21T20:52:50;8.27;;;5.80;;
22298;SDS011;11317;51.072;17.036;2023-04-21T20:55:16;13.60;;;7.07;;
22298;SDS011;11317;51.072;17.036;2023-04-21T20:57:42;11.43;;;6.63;;
22298;SDS011;11317;51.072;17.036;2023-04-21T21:00:08;14.00;;;7.30;;
22298;SDS011;11317;51.072;17.036;2023-04-21T21:02:36;9.82;;;6.38;;
22298;SDS011;11317;51.072;17.036;2023-04-21T21:05:02;8.00;;;5.40;;
22298;SDS011;11317;51.072;17.036;2023-04-21T21:07:28;12.82;;;6.70;;
22298;SDS011;11317;51.072;17.036;2023-04-21T21:09:55;13.52;;;6.72;;
22298;SDS011;11317;51.072;17.036;2023-04-21T21:12:21;12.73;;;6.88;;
22298;SDS011;11317;51.072;17.036;2023-04-21T21:14:47;9.70;;;6.13;;
22298;SDS011;11317;51.072;17.036;2023-04-21T21:17:13;9.45;;;5.68;;
22298;SDS011;11317;51.072;17.036;2023-04-21T21:19:41;12.05;;;6.95;;
22298;SDS011;11317;51.072;17.036;2023-04-21T21:22:07;9.55;;;5.85;;
22298;SDS011;11317;51.072;17.036;2023-04-21T21:24:34;12.50;;;6.65;;
22298;SDS011;11317;51.072;17.036;2023-04-21T21:27:00;10.98;;;6.13;;
22298;SDS011;11317;51.072;17.036;2023-04-21T21:29:26;13.88;;;6.10;;
22298;SDS011;11317;51.072;17.036;2023-04-21T21:31:53;15.70;;;6.50;;
22298;SDS011;11317;51.072;17.036;2023-04-21T21:34:19;11.00;;;6.50;;
22298;SDS011;11317;51.072;17.036;2023-04-21T21:36:45;7.65;;;5.57;;
22298;SDS011;11317;51.072;17.036;2023-04-21T21:39:11;12.10;;;5.78;;
22298;SDS011;11317;51.072;17.036;2023-04-21T21:41:38;9.38;;;5.55;;
22298;SDS011;11317;51.072;17.036;2023-04-21T21:44:04;10.13;;;6.25;;
22298;SDS011;11317;51.072;17.036;2023-04-21T21:46:31;11.07;;;6.03;;
22298;SDS011;11317;51.072;17.036;2023-04-21T21:48:58;11.88;;;6.28;;
22298;SDS011;11317;51.072;17.036;2023-04-21T21:51:24;9.82;;;6.00;;
22298;SDS011;11317;51.072;17.036;2023-04-21T21:53:52;11.20;;;5.85;;
22298;SDS011;11317;51.072;17.036;2023-04-21T21:56:19;8.40;;;5.40;;
22298;SDS011;11317;51.072;17.036;2023-04-21T21:58:46;12.18;;;6.00;;
22298;SDS011;11317;51.072;17.036;2023-04-21T22:01:12;11.77;;;5.95;;
22298;SDS011;11317;51.072;17.036;2023-04-21T22:03:41;9.80;;;5.55;;
22298;SDS011;11317;51.072;17.036;2023-04-21T22:06:08;12.23;;;6.32;;
22298;SDS011;11317;51.072;17.036;2023-04-21T22:08:34;13.15;;;5.95;;
22298;SDS011;11317;51.072;17.036;2023-04-21T22:11:01;11.00;;;6.28;;
22298;SDS011;11317;51.072;17.036;2023-04-21T22:13:30;8.85;;;5.93;;
22298;SDS011;11317;51.072;17.036;2023-04-21T22:15:56;12.25;;;6.18;;
22298;SDS011;11317;51.072;17.036;2023-04-21T22:18:22;9.18;;;6.03;;
22298;SDS011;11317;51.072;17.036;2023-04-21T22:20:48;12.82;;;6.47;;
22298;SDS011;11317;51.072;17.036;2023-04-21T22:23:14;10.80;;;5.47;;
22298;SDS011;11317;51.072;17.036;2023-04-21T22:25:43;13.10;;;6.30;;
22298;SDS011;11317;51.072;17.036;2023-04-21T22:28:09;11.75;;;5.55;;
22298;SDS011;11317;51.072;17.036;2023-04-21T22:30:35;12.13;;;6.18;;
22298;SDS011;11317;51.072;17.036;2023-04-21T22:33:02;11.27;;;6.18;;
22298;SDS011;11317;51.072;17.036;2023-04-21T22:35:28;13.32;;;6.05;;
22298;SDS011;11317;51.072;17.036;2023-04-21T22:37:55;11.80;;;6.25;;
22298;SDS011;11317;51.072;17.036;2023-04-21T22:40:21;10.52;;;6.18;;
22298;SDS011;11317;51.072;17.036;2023-04-21T22:42:47;16.35;;;6.80;;
22298;SDS011;11317;51.072;17.036;2023-04-21T22:45:13;11.27;;;6.50;;
22298;SDS011;11317;51.072;17.036;2023-04-21T22:47:39;15.70;;;6.80;;
22298;SDS011;11317;51.072;17.036;2023-04-21T22:50:06;15.32;;;7.30;;
22298;SDS011;11317;51.072;17.036;2023-04-21T22:52:33;16.50;;;8.07;;
22298;SDS011;11317;51.072;17.036;2023-04-21T22:54:59;18.48;;;7.90;;
22298;SDS011;11317;51.072;17.036;2023-04-21T22:57:25;13.93;;;7.22;;
22298;SDS011;11317;51.072;17.036;2023-04-21T22:59:51;14.48;;;7.57;;
22298;SDS011;11317;51.072;17.036;2023-04-21T23:02:18;18.13;;;7.63;;
22298;SDS011;11317;51.072;17.036;2023-04-21T23:04:44;15.18;;;8.07;;
22298;SDS011;11317;51.072;17.036;2023-04-21T23:07:10;12.27;;;7.45;;
22298;SDS011;11317;51.072;17.036;2023-04-21T23:09:36;12.73;;;7.13;;
22298;SDS011;11317;51.072;17.036;2023-04-21T23:12:02;14.63;;;7.65;;
22298;SDS011;11317;51.072;17.036;2023-04-21T23:14:30;11.52;;;6.97;;
22298;SDS011;11317;51.072;17.036;2023-04-21T23:16:56;14.65;;;6.75;;
22298;SDS011;11317;51.072;17.036;2023-04-21T23:19:22;16.77;;;7.55;;
22298;SDS011;11317;51.072;17.036;2023-04-21T23:21:48;12.50;;;7.47;;
22298;SDS011;11317;51.072;17.036;2023-04-21T23:24:14;18.70;;;7.55;;
22298;SDS011;11317;51.072;17.036;2023-04-21T23:26:40;16.73;;;7.97;;
22298;SDS011;11317;51.072;17.036;2023-04-21T23:29:07;14.40;;;8.50;;
22298;SDS011;11317;51.072;17.036;2023-04-21T23:31:33;14.18;;;7.50;;
22298;SDS011;11317;51.072;17.036;2023-04-21T23:33:59;14.57;;;7.70;;
22298;SDS011;11317;51.072;17.036;2023-04-21T23:36:25;12.65;;;7.30;;
22298;SDS011;11317;51.072;17.036;2023-04-21T23:38:52;18.60;;;8.15;;
22298;SDS011;11317;51.072;17.036;2023-04-21T23:41:18;14.48;;;8.05;;
22298;SDS011;11317;51.072;17.036;2023-04-21T23:43:45;15.82;;;8.40;;
22298;SDS011;11317;51.072;17.036;2023-04-21T23:46:11;14.10;;;7.93;;
22298;SDS011;11317;51.072;17.036;2023-04-21T23:48:39;23.30;;;9.52;;
22298;SDS011;11317;51.072;17.036;2023-04-21T23:51:05;20.48;;;9.88;;
22298;SDS011;11317;51.072;17.036;2023-04-21T23:53:31;27.10;;;12.23;;
22298;SDS011;11317;51.072;17.036;2023-04-21T23:55:58;39.55;;;14.35;;
22298;SDS011;11317;51.072;17.036;2023-04-21T23:58:24;31.45;;;12.65;;
